Time;durP1;ratioP1;P1;durP2;ratioP2;P2;SDS_P1;SDS_P2;PMS_P1;PMS_P2;Temp;Humidity;BMP_temperature;BMP_pressure;BME280_temperature;BME280_humidity;BME280_pressure;Samples;Min_cycle;Max_cycle;Signal;HPM_P1;HPM_P2
2022/11/20 00:01:14;;;;;;;5.77;3.00;;;;;;;;;;5097327;28;20236;-64
2022/11/20 00:03:42;;;;;;;4.73;3.30;;;;;;;;;;5097701;28;20229;-63
2022/11/20 00:06:11;;;;;;;6.30;3.50;;;;;;;;;;5097986;28;20231;-64
2022/11/20 00:08:39;;;;;;;5.33;2.70;;;;;;;;;;5097539;28;20205;-63
2022/11/20 00:11:10;;;;;;;3.33;2.67;;;;;;;;;;5097721;28;20198;-63
2022/11/20 00:13:42;;;;;;;4.03;2.67;;;;;;;;;;5095648;28;20658;-63
2022/11/20 00:16:11;;;;;;;3.93;2.30;;;;;;;;;;5096494;28;20572;-63
2022/11/20 00:18:39;;;;;;;4.83;3.00;;;;;;;;;;5086578;28;20252;-63
2022/11/20 00:21:08;;;;;;;4.27;2.67;;;;;;;;;;5097299;28;20232;-63
2022/11/20 00:23:36;;;;;;;3.37;2.37;;;;;;;;;;5097482;28;20233;-62
2022/11/20 00:26:05;;;;;;;4.60;2.37;;;;;;;;;;5097434;28;20586;-63
2022/11/20 00:28:34;;;;;;;4.57;2.00;;;;;;;;;;5097198;28;20220;-63
2022/11/20 00:31:03;;;;;;;2.73;2.50;;;;;;;;;;5097370;28;20217;-63
2022/11/20 00:33:31;;;;;;;4.93;2.47;;;;;;;;;;5097479;28;20311;-63
2022/11/20 00:36:03;;;;;;;3.90;2.27;;;;;;;;;;5097428;28;20206;-62
2022/11/20 00:38:31;;;;;;;2.83;2.30;;;;;;;;;;5097302;28;20210;-63
2022/11/20 00:41:00;;;;;;;2.43;2.20;;;;;;;;;;5097424;28;20221;-63
2022/11/20 00:43:28;;;;;;;4.23;3.20;;;;;;;;;;5099545;28;20228;-63
2022/11/20 00:46:01;;;;;;;3.67;2.63;;;;;;;;;;5100466;28;20212;-62
2022/11/20 00:48:29;;;;;;;3.93;3.10;;;;;;;;;;5100948;28;20206;-63
2022/11/20 00:50:58;;;;;;;3.77;3.23;;;;;;;;;;5101153;28;20205;-63
2022/11/20 00:53:26;;;;;;;4.77;3.20;;;;;;;;;;5100883;28;20225;-63
2022/11/20 00:55:57;;;;;;;4.70;3.00;;;;;;;;;;5101329;28;20209;-63
2022/11/20 00:58:25;;;;;;;5.90;3.77;;;;;;;;;;5100442;28;20251;-63
2022/11/20 01:01:00;;;;;;;3.57;3.27;;;;;;;;;;5100656;28;20310;-63
2022/11/20 01:03:31;;;;;;;5.20;3.03;;;;;;;;;;5100922;28;20228;-63
2022/11/20 01:06:00;;;;;;;6.10;3.60;;;;;;;;;;5100983;28;20288;-63
2022/11/20 01:08:30;;;;;;;6.00;3.30;;;;;;;;;;5100519;28;20642;-63
2022/11/20 01:11:02;;;;;;;7.53;3.73;;;;;;;;;;5099779;28;20212;-64
2022/11/20 01:13:40;;;;;;;4.07;2.50;;;;;;;;;;5098996;28;20221;-64
2022/11/20 01:16:09;;;;;;;3.47;3.00;;;;;;;;;;5097369;28;20212;-64
2022/11/20 01:18:39;;;;;;;5.13;3.47;;;;;;;;;;5100591;28;20201;-63
2022/11/20 01:21:08;;;;;;;5.17;2.80;;;;;;;;;;5099722;28;20230;-64
2022/11/20 01:23:36;;;;;;;5.50;3.50;;;;;;;;;;5100323;28;20696;-64
2022/11/20 01:26:05;;;;;;;3.40;3.10;;;;;;;;;;5100430;28;20201;-65
2022/11/20 01:28:33;;;;;;;5.57;3.80;;;;;;;;;;5100181;28;20204;-64
2022/11/20 01:31:01;;;;;;;6.30;3.77;;;;;;;;;;5099750;28;20547;-63
2022/11/20 01:33:29;;;;;;;7.97;4.00;;;;;;;;;;5100359;28;20701;-64
2022/11/20 01:36:06;;;;;;;5.27;3.63;;;;;;;;;;5100310;28;20206;-63
2022/11/20 01:38:34;;;;;;;4.73;2.83;;;;;;;;;;5099047;28;20207;-64
2022/11/20 01:41:02;;;;;;;6.60;4.00;;;;;;;;;;5100178;28;20229;-64
2022/11/20 01:43:29;;;;;;;6.30;3.53;;;;;;;;;;5099904;28;20221;-64
2022/11/20 01:45:59;;;;;;;4.67;3.80;;;;;;;;;;5099764;28;20219;-64
2022/11/20 01:48:29;;;;;;;6.47;3.80;;;;;;;;;;5100006;28;20210;-64
2022/11/20 01:50:58;;;;;;;5.17;3.30;;;;;;;;;;5100265;28;20197;-64
2022/11/20 01:53:30;;;;;;;6.70;3.30;;;;;;;;;;5099553;28;20232;-64
2022/11/20 01:55:59;;;;;;;4.67;2.90;;;;;;;;;;5098867;28;20205;-64
2022/11/20 01:58:29;;;;;;;7.20;3.03;;;;;;;;;;5099571;28;20243;-63
2022/11/20 02:00:57;;;;;;;6.03;3.47;;;;;;;;;;5099272;28;20222;-64
2022/11/20 02:03:25;;;;;;;4.03;3.20;;;;;;;;;;5099530;28;20712;-63
2022/11/20 02:05:56;;;;;;;6.43;3.27;;;;;;;;;;5099473;28;20213;-63
2022/11/20 02:08:24;;;;;;;5.93;3.43;;;;;;;;;;5099596;28;20291;-64
2022/11/20 02:10:54;;;;;;;5.60;3.20;;;;;;;;;;5099717;28;20216;-63
2022/11/20 02:16:09;;;;;;;3.43;2.90;;;;;;;;;;5098875;28;20212;-64
2022/11/20 02:18:38;;;;;;;4.87;3.00;;;;;;;;;;5099257;28;20202;-64
2022/11/20 02:21:07;;;;;;;4.33;2.87;;;;;;;;;;5099149;28;20217;-64
2022/11/20 02:23:39;;;;;;;3.70;3.07;;;;;;;;;;5099060;28;20221;-64
2022/11/20 02:26:10;;;;;;;7.10;3.87;;;;;;;;;;5096438;28;20960;-64
2022/11/20 02:28:38;;;;;;;6.00;3.20;;;;;;;;;;5099128;28;20201;-64
2022/11/20 02:31:06;;;;;;;4.63;3.03;;;;;;;;;;5098937;28;20208;-64
2022/11/20 02:33:34;;;;;;;4.13;3.07;;;;;;;;;;5097810;28;20222;-64
2022/11/20 02:36:02;;;;;;;2.93;2.70;;;;;;;;;;5098870;28;20572;-64
2022/11/20 02:38:30;;;;;;;3.47;3.13;;;;;;;;;;5098873;28;20208;-64
2022/11/20 02:40:58;;;;;;;5.47;3.53;;;;;;;;;;5098604;28;20628;-64
2022/11/20 02:43:27;;;;;;;4.73;2.97;;;;;;;;;;5098419;28;20243;-64
2022/11/20 02:45:55;;;;;;;5.27;3.07;;;;;;;;;;5098511;28;20220;-64
2022/11/20 02:48:23;;;;;;;4.80;3.20;;;;;;;;;;5098777;28;20205;-64
2022/11/20 02:50:52;;;;;;;6.47;3.30;;;;;;;;;;5098662;28;20718;-64
2022/11/20 02:53:20;;;;;;;3.13;2.77;;;;;;;;;;5098554;28;20201;-64
2022/11/20 02:55:48;;;;;;;8.40;3.37;;;;;;;;;;5097451;28;20202;-64
2022/11/20 02:58:16;;;;;;;4.60;3.27;;;;;;;;;;5097333;28;20261;-64
2022/11/20 03:00:45;;;;;;;4.17;2.60;;;;;;;;;;5097893;28;20201;-64
2022/11/20 03:03:13;;;;;;;6.93;3.20;;;;;;;;;;5098137;28;20209;-64
2022/11/20 03:06:00;;;;;;;7.57;3.13;;;;;;;;;;5136007;27;20548;-64
2022/11/20 03:08:29;;;;;;;4.77;2.77;;;;;;;;;;5136252;27;20210;-64
2022/11/20 03:10:57;;;;;;;4.00;2.83;;;;;;;;;;5136365;27;20204;-64
2022/11/20 03:13:25;;;;;;;4.83;2.77;;;;;;;;;;5135828;27;20231;-64
2022/11/20 03:15:54;;;;;;;4.37;3.27;;;;;;;;;;5135877;27;20200;-64
2022/11/20 03:18:22;;;;;;;4.07;2.90;;;;;;;;;;5117698;27;20297;-64
2022/11/20 03:20:50;;;;;;;3.93;2.70;;;;;;;;;;5115493;28;20205;-64
2022/11/20 03:23:19;;;;;;;4.87;3.20;;;;;;;;;;5115203;28;20216;-64
2022/11/20 03:25:47;;;;;;;3.47;2.90;;;;;;;;;;5107289;28;20222;-63
2022/11/20 03:28:15;;;;;;;6.30;3.30;;;;;;;;;;5115073;28;20213;-63
2022/11/20 03:30:43;;;;;;;7.30;3.83;;;;;;;;;;5114746;28;20215;-63
2022/11/20 03:33:11;;;;;;;3.47;3.17;;;;;;;;;;5115240;28;20205;-64
2022/11/20 03:35:39;;;;;;;3.33;2.90;;;;;;;;;;5115365;28;20209;-63
2022/11/20 03:38:07;;;;;;;5.67;2.70;;;;;;;;;;5115195;28;20205;-63
2022/11/20 03:40:36;;;;;;;5.17;3.00;;;;;;;;;;5115187;28;20220;-65
2022/11/20 03:43:04;;;;;;;4.43;3.13;;;;;;;;;;5114949;28;20205;-64
2022/11/20 03:45:32;;;;;;;6.03;3.20;;;;;;;;;;5114669;28;20579;-64
2022/11/20 03:48:00;;;;;;;7.23;3.50;;;;;;;;;;5114938;28;20212;-64
2022/11/20 03:50:28;;;;;;;5.87;3.50;;;;;;;;;;5115030;28;20201;-64
2022/11/20 03:52:56;;;;;;;4.63;2.63;;;;;;;;;;5114942;28;20211;-64
2022/11/20 03:55:24;;;;;;;5.10;3.23;;;;;;;;;;5112587;28;20227;-64
2022/11/20 03:57:53;;;;;;;3.40;3.10;;;;;;;;;;5111174;28;20200;-63
2022/11/20 04:00:21;;;;;;;3.90;3.30;;;;;;;;;;5114497;28;20201;-63
2022/11/20 04:02:49;;;;;;;5.13;3.87;;;;;;;;;;5110854;28;20285;-64
2022/11/20 04:05:17;;;;;;;4.30;3.07;;;;;;;;;;5114002;28;20229;-65
2022/11/20 04:07:45;;;;;;;3.40;2.47;;;;;;;;;;5112481;28;20205;-64
2022/11/20 04:10:13;;;;;;;4.30;3.23;;;;;;;;;;5102422;28;20198;-62
2022/11/20 04:12:41;;;;;;;3.93;3.00;;;;;;;;;;5113747;28;20201;-64
2022/11/20 04:15:11;;;;;;;4.57;2.77;;;;;;;;;;5109527;28;20217;-64
2022/11/20 04:17:39;;;;;;;5.87;2.70;;;;;;;;;;5099577;28;20201;-64
2022/11/20 04:20:07;;;;;;;2.90;2.70;;;;;;;;;;5100810;28;20220;-64
2022/11/20 04:22:35;;;;;;;5.80;3.20;;;;;;;;;;5100571;28;20206;-64
2022/11/20 04:25:03;;;;;;;3.03;2.70;;;;;;;;;;5100516;28;20226;-64
2022/11/20 04:27:31;;;;;;;3.77;2.77;;;;;;;;;;5091487;28;20206;-64
2022/11/20 04:29:59;;;;;;;4.20;2.67;;;;;;;;;;5100451;28;20205;-64
2022/11/20 04:32:29;;;;;;;4.53;3.17;;;;;;;;;;5109114;28;20202;-64
2022/11/20 04:34:57;;;;;;;4.20;3.10;;;;;;;;;;5098748;28;20210;-64
2022/11/20 04:37:25;;;;;;;3.67;2.90;;;;;;;;;;5099639;28;20197;-64
2022/11/20 04:39:53;;;;;;;3.90;3.10;;;;;;;;;;5097282;28;20227;-64
2022/11/20 04:42:30;;;;;;;3.97;3.27;;;;;;;;;;5117491;28;20209;-64
2022/11/20 04:44:59;;;;;;;4.57;3.00;;;;;;;;;;5105125;28;20685;-64
2022/11/20 04:47:29;;;;;;;3.77;2.57;;;;;;;;;;5098915;28;20209;-64
2022/11/20 04:49:58;;;;;;;2.97;2.63;;;;;;;;;;5114229;28;20201;-64
2022/11/20 04:52:27;;;;;;;4.13;2.97;;;;;;;;;;5120499;28;20266;-64
2022/11/20 04:54:57;;;;;;;7.07;3.20;;;;;;;;;;5111938;28;20228;-63
2022/11/20 04:57:25;;;;;;;3.23;2.90;;;;;;;;;;5098687;28;20198;-63
2022/11/20 04:59:54;;;;;;;4.47;2.83;;;;;;;;;;5098929;28;20208;-63
2022/11/20 05:02:22;;;;;;;5.60;3.00;;;;;;;;;;5098339;28;20198;-64
2022/11/20 05:04:50;;;;;;;4.00;3.00;;;;;;;;;;5098746;28;20233;-64
2022/11/20 05:07:20;;;;;;;4.53;3.13;;;;;;;;;;5101472;28;20204;-64
2022/11/20 05:09:48;;;;;;;6.97;3.10;;;;;;;;;;5099389;28;20227;-64
2022/11/20 05:12:16;;;;;;;4.33;3.43;;;;;;;;;;5099577;28;20576;-64
2022/11/20 05:14:44;;;;;;;4.33;2.80;;;;;;;;;;5098563;28;20214;-64
2022/11/20 05:17:13;;;;;;;4.43;2.90;;;;;;;;;;5095902;28;20205;-64
2022/11/20 05:19:40;;;;;;;6.63;3.33;;;;;;;;;;5097004;28;20213;-64
2022/11/20 05:22:08;;;;;;;5.47;3.37;;;;;;;;;;5095470;28;20202;-64
2022/11/20 05:24:38;;;;;;;4.30;3.27;;;;;;;;;;5099256;28;20226;-64
2022/11/20 05:27:06;;;;;;;3.80;3.00;;;;;;;;;;5098533;28;20225;-64
2022/11/20 05:29:34;;;;;;;4.20;2.73;;;;;;;;;;5098792;28;20205;-63
2022/11/20 05:32:02;;;;;;;4.80;3.43;;;;;;;;;;5099200;28;20221;-64
2022/11/20 05:34:29;;;;;;;3.23;2.93;;;;;;;;;;5092085;28;20229;-64
2022/11/20 05:36:57;;;;;;;3.80;3.30;;;;;;;;;;5096944;28;20202;-64
2022/11/20 05:39:25;;;;;;;4.73;3.00;;;;;;;;;;5099113;28;20207;-64
2022/11/20 05:44:36;;;;;;;5.20;3.10;;;;;;;;;;5098250;28;20587;-64
2022/11/20 05:47:04;;;;;;;3.67;3.13;;;;;;;;;;5111692;28;20220;-64
2022/11/20 05:49:32;;;;;;;7.07;3.23;;;;;;;;;;5119470;28;20207;-63
2022/11/20 05:52:00;;;;;;;4.10;3.70;;;;;;;;;;5119496;27;20228;-64
2022/11/20 05:54:28;;;;;;;5.20;3.20;;;;;;;;;;5085694;28;20230;-63
2022/11/20 05:56:57;;;;;;;7.80;3.43;;;;;;;;;;5098730;28;20560;-64
2022/11/20 05:59:25;;;;;;;5.30;3.40;;;;;;;;;;5098665;28;20213;-63
2022/11/20 06:01:54;;;;;;;3.77;3.17;;;;;;;;;;5098512;28;20284;-63
2022/11/20 06:04:22;;;;;;;3.07;2.77;;;;;;;;;;5098613;28;20241;-62
2022/11/20 06:06:50;;;;;;;5.27;3.00;;;;;;;;;;5098448;28;20776;-63
2022/11/20 06:09:18;;;;;;;4.23;3.30;;;;;;;;;;5097901;28;20235;-64
2022/11/20 06:11:46;;;;;;;5.80;3.00;;;;;;;;;;5098663;28;20205;-64
2022/11/20 06:14:15;;;;;;;4.73;4.03;;;;;;;;;;5098215;28;20229;-64
2022/11/20 06:16:43;;;;;;;8.17;3.53;;;;;;;;;;5084759;28;20197;-64
2022/11/20 06:19:11;;;;;;;3.67;3.33;;;;;;;;;;5098452;28;20212;-64
2022/11/20 06:21:39;;;;;;;4.67;3.40;;;;;;;;;;5100149;28;20205;-62
2022/11/20 06:24:09;;;;;;;7.03;3.17;;;;;;;;;;5100466;28;20225;-63
2022/11/20 06:26:37;;;;;;;5.10;4.27;;;;;;;;;;5097841;28;20913;-64
2022/11/20 06:29:05;;;;;;;4.37;3.83;;;;;;;;;;5091822;28;20217;-64
2022/11/20 06:31:37;;;;;;;3.97;3.30;;;;;;;;;;5090991;28;20209;-64
2022/11/20 06:34:05;;;;;;;8.07;3.87;;;;;;;;;;5098106;28;20222;-63
2022/11/20 06:36:36;;;;;;;4.10;3.50;;;;;;;;;;5097094;28;20280;-65
2022/11/20 06:39:04;;;;;;;3.73;3.43;;;;;;;;;;5091911;28;20211;-64
2022/11/20 06:41:32;;;;;;;6.50;3.93;;;;;;;;;;5080133;28;20202;-64
2022/11/20 06:44:00;;;;;;;6.17;3.50;;;;;;;;;;5097568;28;20704;-63
2022/11/20 06:46:28;;;;;;;6.40;3.57;;;;;;;;;;5092196;28;20226;-64
2022/11/20 06:48:58;;;;;;;6.10;3.73;;;;;;;;;;5080749;28;20208;-64
2022/11/20 06:51:25;;;;;;;10.73;3.83;;;;;;;;;;5095233;28;20283;-64
2022/11/20 06:53:54;;;;;;;5.67;3.50;;;;;;;;;;5097683;28;20228;-64
2022/11/20 06:56:23;;;;;;;4.60;3.40;;;;;;;;;;5097490;28;20244;-64
2022/11/20 06:58:51;;;;;;;6.17;3.90;;;;;;;;;;5087646;28;20202;-64
2022/11/20 07:01:19;;;;;;;8.70;4.47;;;;;;;;;;5094178;28;20198;-64
2022/11/20 07:03:49;;;;;;;7.73;3.70;;;;;;;;;;5097168;28;20232;-66
2022/11/20 07:06:22;;;;;;;4.93;3.97;;;;;;;;;;5092957;28;20213;-64
2022/11/20 07:08:51;;;;;;;7.57;4.23;;;;;;;;;;5089358;28;20197;-65
2022/11/20 07:11:19;;;;;;;6.63;4.00;;;;;;;;;;5095212;28;20569;-64
2022/11/20 07:13:47;;;;;;;5.00;4.30;;;;;;;;;;5082221;28;20225;-64
2022/11/20 07:16:15;;;;;;;10.47;4.17;;;;;;;;;;5086401;28;20571;-64
2022/11/20 07:18:43;;;;;;;6.80;3.97;;;;;;;;;;5084986;28;20197;-64
2022/11/20 07:21:17;;;;;;;7.33;3.87;;;;;;;;;;5090119;28;20292;-64
2022/11/20 07:23:46;;;;;;;6.77;3.60;;;;;;;;;;5091433;28;20226;-64
2022/11/20 07:26:14;;;;;;;6.67;4.67;;;;;;;;;;5090085;28;20221;-63
2022/11/20 07:28:44;;;;;;;5.40;4.60;;;;;;;;;;5097183;28;20201;-64
2022/11/20 07:31:12;;;;;;;6.10;4.17;;;;;;;;;;5083314;28;20210;-65
2022/11/20 07:33:46;;;;;;;7.30;5.10;;;;;;;;;;5097175;28;20229;-63
2022/11/20 07:36:14;;;;;;;5.60;4.23;;;;;;;;;;5078953;28;20200;-63
2022/11/20 07:38:42;;;;;;;6.77;4.67;;;;;;;;;;5083889;28;20238;-64
2022/11/20 07:41:11;;;;;;;5.13;4.27;;;;;;;;;;5096900;28;20202;-64
2022/11/20 07:43:39;;;;;;;8.53;5.23;;;;;;;;;;5083576;28;20217;-62
2022/11/20 07:46:08;;;;;;;5.93;5.33;;;;;;;;;;5090357;28;20206;-64
2022/11/20 07:48:36;;;;;;;8.37;4.60;;;;;;;;;;5094142;28;20212;-64
2022/11/20 07:51:04;;;;;;;8.10;5.33;;;;;;;;;;5100387;28;20206;-63
2022/11/20 07:53:32;;;;;;;5.60;4.73;;;;;;;;;;5090559;28;20217;-63
2022/11/20 07:56:00;;;;;;;5.70;4.60;;;;;;;;;;5096148;28;20202;-63
2022/11/20 07:58:32;;;;;;;7.07;4.13;;;;;;;;;;5098582;28;20197;-62
2022/11/20 08:01:03;;;;;;;4.83;4.33;;;;;;;;;;5089785;28;20212;-62
2022/11/20 08:03:31;;;;;;;12.47;7.70;;;;;;;;;;5094379;28;20225;-64
2022/11/20 08:05:59;;;;;;;10.83;7.10;;;;;;;;;;5097536;28;20208;-63
2022/11/20 08:08:27;;;;;;;9.33;5.10;;;;;;;;;;5080544;28;20230;-63
2022/11/20 08:14:11;;;;;;;9.03;4.33;;;;;;;;;;5096889;28;20285;-63
2022/11/20 08:16:36;;;;;;;6.77;4.43;;;;;;;;;;5094665;28;20608;-61
2022/11/20 08:19:04;;;;;;;8.13;4.10;;;;;;;;;;5090423;28;20229;-64
2022/11/20 08:21:33;;;;;;;5.53;4.10;;;;;;;;;;5086846;28;20198;-63
2022/11/20 08:24:05;;;;;;;5.23;3.30;;;;;;;;;;5096420;28;20225;-64
2022/11/20 08:26:33;;;;;;;9.90;3.60;;;;;;;;;;5099297;28;20608;-63
2022/11/20 08:29:03;;;;;;;4.70;3.20;;;;;;;;;;5093693;28;20573;-63
2022/11/20 08:31:32;;;;;;;4.83;3.30;;;;;;;;;;5082410;28;20614;-63
2022/11/20 08:34:00;;;;;;;3.83;2.33;;;;;;;;;;5090073;28;20222;-62
2022/11/20 08:36:34;;;;;;;3.50;2.70;;;;;;;;;;5095848;28;20249;-63
2022/11/20 08:39:02;;;;;;;4.53;2.77;;;;;;;;;;5099333;28;20216;-63
2022/11/20 08:41:32;;;;;;;6.93;2.47;;;;;;;;;;5095753;28;20339;-63
2022/11/20 08:44:01;;;;;;;6.03;1.90;;;;;;;;;;5092763;28;20265;-62
2022/11/20 08:46:33;;;;;;;3.53;2.17;;;;;;;;;;5077140;28;20289;-62
2022/11/20 08:49:01;;;;;;;11.93;1.90;;;;;;;;;;5091565;28;20210;-63
2022/11/20 08:51:29;;;;;;;2.80;2.00;;;;;;;;;;5097829;28;20197;-63
2022/11/20 08:53:57;;;;;;;5.83;1.67;;;;;;;;;;5098716;28;20225;-63
2022/11/20 08:56:25;;;;;;;4.40;2.10;;;;;;;;;;5098251;28;20197;-63
2022/11/20 08:58:54;;;;;;;5.93;1.70;;;;;;;;;;5098714;28;20464;-63
2022/11/20 09:01:43;;;;;;;6.23;2.10;;;;;;;;;;5098429;28;20208;-63
2022/11/20 09:04:14;;;;;;;7.50;2.00;;;;;;;;;;5099462;28;20237;-63
2022/11/20 09:06:42;;;;;;;3.97;1.57;;;;;;;;;;5085772;28;20202;-64
2022/11/20 09:09:10;;;;;;;2.70;2.03;;;;;;;;;;5085831;28;20208;-63
2022/11/20 09:11:38;;;;;;;6.13;2.33;;;;;;;;;;5095383;28;20219;-63
2022/11/20 09:14:06;;;;;;;5.57;1.80;;;;;;;;;;5093577;28;20227;-63
2022/11/20 09:16:34;;;;;;;4.13;2.20;;;;;;;;;;5091618;28;20224;-63
2022/11/20 09:19:03;;;;;;;4.97;2.20;;;;;;;;;;5093219;28;20281;-63
2022/11/20 09:21:51;;;;;;;6.80;2.10;;;;;;;;;;5090885;28;20209;-62
2022/11/20 09:24:26;;;;;;;5.23;2.00;;;;;;;;;;5095889;28;20681;-63
2022/11/20 09:26:54;;;;;;;7.10;1.93;;;;;;;;;;5096115;28;20207;-63
2022/11/20 09:29:22;;;;;;;3.97;1.70;;;;;;;;;;5097197;28;20198;-63
2022/11/20 09:31:51;;;;;;;4.20;1.90;;;;;;;;;;5097257;28;20285;-63
2022/11/20 09:34:20;;;;;;;4.20;2.20;;;;;;;;;;5086522;28;20241;-63
2022/11/20 09:36:48;;;;;;;3.43;1.50;;;;;;;;;;5083128;28;20661;-63
2022/11/20 09:39:16;;;;;;;5.10;1.80;;;;;;;;;;5097459;28;20213;-63
2022/11/20 09:42:02;;;;;;;5.33;2.03;;;;;;;;;;5081799;28;20202;-63
2022/11/20 09:44:39;;;;;;;2.67;1.50;;;;;;;;;;5090679;28;20312;-63
2022/11/20 09:47:09;;;;;;;4.47;1.80;;;;;;;;;;5084774;28;20675;-63
2022/11/20 09:49:45;;;;;;;5.07;2.00;;;;;;;;;;5097869;28;20205;-63
2022/11/20 09:52:16;;;;;;;6.87;1.63;;;;;;;;;;5086359;28;20201;-63
2022/11/20 09:54:44;;;;;;;5.43;1.90;;;;;;;;;;5093677;28;20218;-63
2022/11/20 09:57:13;;;;;;;5.17;1.90;;;;;;;;;;5089502;28;20205;-63
2022/11/20 09:59:42;;;;;;;4.43;2.00;;;;;;;;;;5078266;28;20200;-63
2022/11/20 10:02:16;;;;;;;4.93;1.80;;;;;;;;;;5095700;28;20206;-63
2022/11/20 10:04:48;;;;;;;8.47;2.50;;;;;;;;;;5094160;28;20237;-63
2022/11/20 10:07:18;;;;;;;7.93;2.87;;;;;;;;;;5086358;28;20231;-63
2022/11/20 10:10:02;;;;;;;6.00;2.00;;;;;;;;;;5096727;28;20236;-63
2022/11/20 10:12:36;;;;;;;3.70;1.80;;;;;;;;;;5097770;28;20215;-63
2022/11/20 10:15:11;;;;;;;6.93;2.20;;;;;;;;;;5084305;28;20214;-63
2022/11/20 10:17:55;;;;;;;5.70;1.80;;;;;;;;;;5091485;28;20201;-62
2022/11/20 10:20:28;;;;;;;7.03;1.87;;;;;;;;;;5090829;28;20226;-63
2022/11/20 10:23:04;;;;;;;3.83;1.87;;;;;;;;;;5089367;28;20201;-62
2022/11/20 10:25:36;;;;;;;3.27;1.60;;;;;;;;;;5085315;28;20201;-62
2022/11/20 10:28:21;;;;;;;4.80;1.33;;;;;;;;;;5094298;28;20716;-62
2022/11/20 10:30:56;;;;;;;3.93;1.90;;;;;;;;;;5094784;28;20205;-62
2022/11/20 10:33:25;;;;;;;3.57;1.70;;;;;;;;;;5080856;28;20583;-62
2022/11/20 10:36:06;;;;;;;4.87;1.50;;;;;;;;;;5093868;28;20280;-62
2022/11/20 10:38:37;;;;;;;3.37;1.47;;;;;;;;;;5095501;28;20197;-62
2022/11/20 10:43:53;;;;;;;1.87;1.63;;;;;;;;;;5095840;28;20229;-62
2022/11/20 10:46:23;;;;;;;3.93;1.43;;;;;;;;;;5085801;28;20224;-62
2022/11/20 10:48:52;;;;;;;7.30;1.40;;;;;;;;;;5095842;28;20727;-62
2022/11/20 10:51:28;;;;;;;2.47;1.63;;;;;;;;;;5096571;28;20205;-62
2022/11/20 10:53:58;;;;;;;3.13;1.40;;;;;;;;;;5097036;28;20569;-62
2022/11/20 10:56:31;;;;;;;5.03;2.40;;;;;;;;;;5092084;28;20197;-62
2022/11/20 10:59:13;;;;;;;2.83;1.70;;;;;;;;;;5093659;28;20211;-61
2022/11/20 11:01:41;;;;;;;3.90;1.70;;;;;;;;;;5093481;28;20201;-62
2022/11/20 11:04:28;;;;;;;3.87;2.30;;;;;;;;;;5095672;28;20233;-62
2022/11/20 11:06:59;;;;;;;4.07;1.73;;;;;;;;;;5095076;28;20211;-62
2022/11/20 11:09:33;;;;;;;5.47;2.17;;;;;;;;;;5095385;28;20232;-61
2022/11/20 11:12:01;;;;;;;11.73;2.20;;;;;;;;;;5091896;28;20206;-62
2022/11/20 11:14:42;;;;;;;6.87;1.80;;;;;;;;;;5091452;28;20238;-61
2022/11/20 11:17:20;;;;;;;2.97;1.57;;;;;;;;;;5085219;28;20209;-62
2022/11/20 11:19:57;;;;;;;4.67;1.60;;;;;;;;;;5078416;28;20208;-61
2022/11/20 11:22:29;;;;;;;3.53;1.80;;;;;;;;;;5091247;28;20207;-62
2022/11/20 11:24:56;;;;;;;7.47;1.90;;;;;;;;;;5096583;28;20229;-61
2022/11/20 11:27:24;;;;;;;3.23;1.90;;;;;;;;;;5099586;28;20202;-62
2022/11/20 11:30:02;;;;;;;5.50;1.80;;;;;;;;;;5081207;28;20221;-62
2022/11/20 11:32:30;;;;;;;4.60;1.40;;;;;;;;;;5099272;28;20227;-63
2022/11/20 11:35:02;;;;;;;4.37;1.90;;;;;;;;;;5099652;28;20214;-62
2022/11/20 11:37:34;;;;;;;4.53;1.60;;;;;;;;;;5100320;28;20270;-62
2022/11/20 11:40:03;;;;;;;2.00;1.60;;;;;;;;;;5100500;28;20190;-62
2022/11/20 11:42:54;;;;;;;5.70;1.60;;;;;;;;;;5101397;28;20255;-62
2022/11/20 11:45:21;;;;;;;3.33;1.70;;;;;;;;;;5092216;28;20218;-63
2022/11/20 11:47:49;;;;;;;4.77;1.70;;;;;;;;;;5100617;28;20205;-63
2022/11/20 11:50:18;;;;;;;1.77;1.30;;;;;;;;;;5089749;28;20228;-62
2022/11/20 11:52:50;;;;;;;2.40;1.40;;;;;;;;;;5093087;28;20286;-62
2022/11/20 11:55:25;;;;;;;1.33;1.23;;;;;;;;;;5095622;28;20229;-62
2022/11/20 11:57:55;;;;;;;8.97;2.60;;;;;;;;;;5100582;28;20206;-62
2022/11/20 12:00:24;;;;;;;6.23;2.63;;;;;;;;;;5098432;28;20202;-62
2022/11/20 12:03:01;;;;;;;3.67;2.20;;;;;;;;;;5098878;28;20205;-62
2022/11/20 12:05:32;;;;;;;4.70;1.50;;;;;;;;;;5095436;28;20225;-63
2022/11/20 12:08:03;;;;;;;3.30;1.50;;;;;;;;;;5090973;28;20256;-62
2022/11/20 12:10:42;;;;;;;7.13;2.70;;;;;;;;;;5095036;28;20276;-63
2022/11/20 12:13:15;;;;;;;4.27;2.80;;;;;;;;;;5099091;28;20208;-63
2022/11/20 12:15:45;;;;;;;4.20;1.77;;;;;;;;;;5092036;28;20273;-63
2022/11/20 12:18:16;;;;;;;2.67;2.13;;;;;;;;;;5084705;28;20210;-62
2022/11/20 12:20:46;;;;;;;5.57;1.80;;;;;;;;;;5097307;28;20194;-62
2022/11/20 12:23:19;;;;;;;3.27;1.57;;;;;;;;;;5099503;28;20198;-61
2022/11/20 12:25:49;;;;;;;5.27;1.60;;;;;;;;;;5091144;28;20683;-61
2022/11/20 12:28:27;;;;;;;2.40;1.57;;;;;;;;;;5083213;28;20206;-61
2022/11/20 12:31:13;;;;;;;2.90;1.90;;;;;;;;;;5086948;28;20201;-63
2022/11/20 12:33:47;;;;;;;4.10;1.90;;;;;;;;;;5098771;28;20233;-61
2022/11/20 12:36:20;;;;;;;4.57;1.63;;;;;;;;;;5098774;28;20197;-61
2022/11/20 12:39:02;;;;;;;4.07;1.50;;;;;;;;;;5090484;28;20655;-61
2022/11/20 12:47:25;;;;;;;4.87;2.80;;;;;;;;;;5099655;28;20304;-62
2022/11/20 12:49:56;;;;;;;2.33;1.77;;;;;;;;;;5094519;28;20228;-62
2022/11/20 12:52:40;;;;;;;4.00;1.70;;;;;;;;;;5092620;28;20215;-62
2022/11/20 12:55:18;;;;;;;2.50;1.47;;;;;;;;;;5085026;28;20213;-62
2022/11/20 12:57:50;;;;;;;4.07;2.50;;;;;;;;;;5100009;28;20206;-62
2022/11/20 13:00:19;;;;;;;6.23;1.90;;;;;;;;;;5098903;28;20197;-62
2022/11/20 13:03:01;;;;;;;5.83;1.70;;;;;;;;;;5094217;28;20213;-62
2022/11/20 13:05:32;;;;;;;5.13;2.90;;;;;;;;;;5091709;28;20313;-61
2022/11/20 13:08:01;;;;;;;8.37;4.97;;;;;;;;;;5095970;28;20201;-62
2022/11/20 13:10:33;;;;;;;5.63;2.20;;;;;;;;;;5081243;28;20222;-62
2022/11/20 13:13:05;;;;;;;2.00;1.40;;;;;;;;;;5089502;28;20201;-61
2022/11/20 13:15:46;;;;;;;4.40;2.10;;;;;;;;;;5087234;28;20213;-62
2022/11/20 13:18:15;;;;;;;4.00;1.60;;;;;;;;;;5098262;28;20216;-62
2022/11/20 13:20:44;;;;;;;3.43;1.57;;;;;;;;;;5099856;28;20220;-61
2022/11/20 13:23:12;;;;;;;2.47;1.37;;;;;;;;;;5114483;28;20245;-61
2022/11/20 13:25:42;;;;;;;5.87;1.70;;;;;;;;;;5098280;28;20280;-61
2022/11/20 13:28:24;;;;;;;3.70;1.47;;;;;;;;;;5095193;28;20209;-61
2022/11/20 13:30:56;;;;;;;2.30;1.40;;;;;;;;;;5085069;28;20217;-61
2022/11/20 13:33:29;;;;;;;6.30;1.67;;;;;;;;;;5088646;28;20301;-61
2022/11/20 13:35:58;;;;;;;2.90;1.40;;;;;;;;;;5083754;28;20212;-61
2022/11/20 13:38:26;;;;;;;1.20;1.00;;;;;;;;;;5095788;28;20193;-62
2022/11/20 13:41:27;;;;;;;3.27;1.50;;;;;;;;;;5096735;28;20197;-61
2022/11/20 13:43:50;;;;;;;2.83;1.50;;;;;;;;;;5097522;28;20308;-61
2022/11/20 13:46:24;;;;;;;4.30;2.17;;;;;;;;;;5086874;28;20232;-61
2022/11/20 13:48:54;;;;;;;1.23;1.20;;;;;;;;;;5089855;28;20202;-61
2022/11/20 13:51:27;;;;;;;3.13;2.03;;;;;;;;;;5085705;28;20222;-61
2022/11/20 13:54:13;;;;;;;6.17;3.00;;;;;;;;;;5095209;28;20225;-62
2022/11/20 13:56:49;;;;;;;3.90;2.23;;;;;;;;;;5064870;28;20201;-62
2022/11/20 13:59:27;;;;;;;3.30;2.17;;;;;;;;;;5097254;28;20211;-61
2022/11/20 14:01:55;;;;;;;5.90;2.13;;;;;;;;;;5096280;28;20210;-62
2022/11/20 14:04:27;;;;;;;2.33;1.20;;;;;;;;;;5097159;28;20677;-61
2022/11/20 14:06:55;;;;;;;1.90;1.70;;;;;;;;;;5083409;28;20581;-61
2022/11/20 14:09:27;;;;;;;3.20;1.50;;;;;;;;;;5098258;28;20205;-61
2022/11/20 14:11:57;;;;;;;3.60;2.00;;;;;;;;;;5096471;28;20208;-61
2022/11/20 14:14:26;;;;;;;5.77;1.60;;;;;;;;;;5084062;28;20585;-62
2022/11/20 14:17:05;;;;;;;3.07;1.97;;;;;;;;;;5092887;28;20657;-61
2022/11/20 14:19:34;;;;;;;3.17;1.77;;;;;;;;;;5083179;28;20200;-61
2022/11/20 14:22:10;;;;;;;4.23;1.27;;;;;;;;;;5087274;28;20209;-61
2022/11/20 14:24:38;;;;;;;1.57;1.30;;;;;;;;;;5094913;28;20213;-61
2022/11/20 14:27:11;;;;;;;4.17;2.03;;;;;;;;;;5096667;28;20206;-62
2022/11/20 14:29:40;;;;;;;4.63;1.90;;;;;;;;;;5097153;28;20219;-62
2022/11/20 14:32:09;;;;;;;2.43;2.23;;;;;;;;;;5084013;28;20210;-61
2022/11/20 14:34:40;;;;;;;3.30;1.50;;;;;;;;;;5084161;28;20221;-62
2022/11/20 14:37:12;;;;;;;4.10;1.57;;;;;;;;;;5095798;28;20929;-61
2022/11/20 14:39:48;;;;;;;1.73;1.40;;;;;;;;;;5097414;28;20193;-61
2022/11/20 14:42:18;;;;;;;5.20;1.93;;;;;;;;;;5096069;28;20208;-61
2022/11/20 14:44:46;;;;;;;1.77;1.33;;;;;;;;;;5097916;28;20233;-61
2022/11/20 14:47:16;;;;;;;2.80;1.40;;;;;;;;;;5096921;28;20225;-62
2022/11/20 14:49:44;;;;;;;2.10;1.63;;;;;;;;;;5084124;28;20202;-62
2022/11/20 14:52:13;;;;;;;3.63;1.83;;;;;;;;;;5091557;28;20202;-61
2022/11/20 14:54:45;;;;;;;3.53;1.87;;;;;;;;;;5090812;28;20233;-61
2022/11/20 14:57:34;;;;;;;2.67;2.20;;;;;;;;;;5092081;28;20221;-62
2022/11/20 15:00:09;;;;;;;2.97;1.70;;;;;;;;;;5086581;28;20653;-61
2022/11/20 15:02:40;;;;;;;6.00;1.63;;;;;;;;;;5096828;28;20557;-61
2022/11/20 15:05:08;;;;;;;6.33;3.07;;;;;;;;;;5088857;28;20230;-61
2022/11/20 15:07:36;;;;;;;3.77;2.70;;;;;;;;;;5093607;28;20207;-61
2022/11/20 15:10:05;;;;;;;2.73;2.03;;;;;;;;;;5081918;28;20600;-61
2022/11/20 15:12:34;;;;;;;2.17;1.70;;;;;;;;;;5079904;28;20216;-61
2022/11/20 15:15:03;;;;;;;4.93;1.60;;;;;;;;;;5089708;28;20232;-61
2022/11/20 15:17:32;;;;;;;4.43;2.20;;;;;;;;;;5092393;28;20201;-61
2022/11/20 15:20:00;;;;;;;1.70;1.43;;;;;;;;;;5092130;28;20202;-62